OPIS

Islamabad International Airport

Airport
ICAO code
OPIS
IATA Code
ISB
Summary
ICAO Region
APAC
ICAO Territory
Location

Thalian, Punjab

Serving
Islamabad and Rawalpindi
Elevation
1761 ft
Coordinates
33° 33' 30" N , 73° 3' 24" E
KCC
Metar
Observation
OPIS 080930Z 23004KT 5000 FU FEW040 BKN100 19/05 Q1017 NOSIG
Station
Islamabad International Airport
Date/Time
2022-12-08 09:30:00
Wind direction
230°
Wind speed
04 kts
Lowest cloud amount
few clouds
Temperature
19°C
Dew point
5°C
Humidity
39%
QNH
1017 hPa
Weather condition
n/a

Islamabad International Airport is the main international airport serving the Islamabad-Rawalpindi metropolitan area and its suburbs.

Climatology

Humid subtropical climate (Köppen climate classification Cwa)

Airport map

Aerial View

SKYbrary Partners:

Safety knowledge contributed by: